Terminal Aerodrome Forecast
Issued by NWS Quad Cities IA IL

Home | Current Version | Previous Version | Text Only | Print | Product List | Glossary On
Versions: 1 2 3 4 5 6 7 8 9 10 11 12 13 14 15 16 17 18 19 20 21 22 23 24 25 26 27 28 29 30 31 32
000
FTUS43 KDVN 242241 AAB
TAFDBQ
TAF AMD
KDBQ 242241Z 2423/2518 13009KT P6SM BKN010
      TEMPO 2423/2502 SCT010
     FM250300 14009KT 1SM BR OVC004
     FM251100 15007KT 1/2SM FG OVC001
     FM251400 17009KT 5SM BR OVC006 PROB30 2515/2518 4SM SHRA BR
      SCT005 OVC025=

USA.gov is the U.S. government's official web portal to all federal, state and local government web resources and services.